createdAt,value
2017-08-02T00:00:44.316Z,9.23
2017-08-02T00:03:10.245Z,10.27
2017-08-02T00:05:36.182Z,8.07
2017-08-02T00:08:02.805Z,8.60
2017-08-02T00:10:29.137Z,9.47
2017-08-02T00:12:55.061Z,7.93
2017-08-02T00:15:21.032Z,8.40
2017-08-02T00:17:46.974Z,9.47
2017-08-02T00:20:13.843Z,9.17
2017-08-02T00:22:39.772Z,8.60
2017-08-02T00:25:05.913Z,9.60
2017-08-02T00:27:31.922Z,15.80
2017-08-02T00:29:57.925Z,12.63
2017-08-02T00:32:23.883Z,8.93
2017-08-02T00:34:49.877Z,9.27
2017-08-02T00:37:15.896Z,9.20
2017-08-02T00:39:42.095Z,9.50
2017-08-02T00:42:08.033Z,11.03
2017-08-02T00:44:33.964Z,9.13
2017-08-02T00:46:59.921Z,8.30
2017-08-02T00:49:25.914Z,9.50
2017-08-02T00:51:51.906Z,9.60
2017-08-02T00:54:17.836Z,8.80
2017-08-02T00:56:43.801Z,9.10
2017-08-02T00:59:09.780Z,9.43
2017-08-02T01:01:35.757Z,9.50
2017-08-02T01:04:01.717Z,11.23
2017-08-02T01:06:27.692Z,9.00
2017-08-02T01:08:53.643Z,10.50
2017-08-02T01:11:19.638Z,9.03
2017-08-02T01:13:45.602Z,11.80
2017-08-02T01:16:11.732Z,12.77
2017-08-02T01:18:37.679Z,9.30
2017-08-02T01:21:03.681Z,8.70
2017-08-02T01:23:29.650Z,9.00
2017-08-02T01:25:55.601Z,9.13
2017-08-02T01:28:21.554Z,9.80
2017-08-02T01:30:47.546Z,9.70
2017-08-02T01:33:13.617Z,9.83
2017-08-02T01:35:40.544Z,8.30
2017-08-02T01:38:07.236Z,9.67
2017-08-02T01:40:33.203Z,9.90
2017-08-02T01:42:59.133Z,9.13
2017-08-02T01:45:25.085Z,9.03
2017-08-02T01:47:51.052Z,9.17
2017-08-02T01:50:17.010Z,9.47
2017-08-02T01:52:43.695Z,9.47
2017-08-02T01:55:09.746Z,8.47
2017-08-02T01:57:36.481Z,9.80
2017-08-02T02:00:02.523Z,12.30
2017-08-02T02:02:29.243Z,8.50
2017-08-02T02:04:55.168Z,8.50
2017-08-02T02:07:21.173Z,10.70
2017-08-02T02:09:47.111Z,9.37
2017-08-02T02:12:13.074Z,8.40
2017-08-02T02:14:39.771Z,9.93
2017-08-02T02:17:05.730Z,9.60
2017-08-02T02:19:31.717Z,9.90
2017-08-02T02:21:58.405Z,9.30
2017-08-02T02:24:24.363Z,8.97
2017-08-02T02:26:50.366Z,10.53
2017-08-02T02:29:16.327Z,11.97
2017-08-02T02:31:43.468Z,9.00
2017-08-02T02:34:10.144Z,9.13
2017-08-02T02:36:36.617Z,9.33
2017-08-02T02:39:03.172Z,10.10
2017-08-02T02:41:29.148Z,9.90
2017-08-02T02:43:55.972Z,9.87
2017-08-02T02:46:21.936Z,12.53
2017-08-02T02:48:48.744Z,10.97
2017-08-02T02:51:14.722Z,10.33
2017-08-02T02:53:41.567Z,10.90
2017-08-02T02:56:07.503Z,13.40
2017-08-02T02:58:33.507Z,9.93
2017-08-02T03:01:00.189Z,11.50
2017-08-02T03:03:26.181Z,11.87
2017-08-02T03:05:52.188Z,9.47
2017-08-02T03:08:18.878Z,10.70
2017-08-02T03:10:44.818Z,11.47
2017-08-02T03:13:10.773Z,10.60
2017-08-02T03:15:36.740Z,12.10
2017-08-02T03:18:03.673Z,10.83
2017-08-02T03:20:29.614Z,12.53
2017-08-02T03:22:55.655Z,12.60
2017-08-02T03:25:21.588Z,12.27
2017-08-02T03:27:47.539Z,11.63
2017-08-02T03:30:13.645Z,11.90
2017-08-02T03:32:39.891Z,11.33
2017-08-02T03:35:06.805Z,11.50
2017-08-02T03:37:32.808Z,12.27
2017-08-02T03:39:58.883Z,11.70
2017-08-02T03:42:24.823Z,11.60
2017-08-02T03:44:50.828Z,11.70
2017-08-02T03:47:16.824Z,11.70
2017-08-02T03:49:44.479Z,11.60
2017-08-02T03:52:10.427Z,10.33
2017-08-02T03:54:36.429Z,11.40
2017-08-02T03:57:04.568Z,13.57
2017-08-02T03:59:30.522Z,12.70
2017-08-02T04:01:56.463Z,12.53
2017-08-02T04:04:23.291Z,12.07
2017-08-02T04:06:50.058Z,12.23
2017-08-02T04:09:16.008Z,15.60
2017-08-02T04:11:41.972Z,12.40
2017-08-02T04:14:09.414Z,13.50
2017-08-02T04:16:36.167Z,13.13
2017-08-02T04:19:02.914Z,12.87
2017-08-02T04:21:28.864Z,13.73
2017-08-02T04:23:56.014Z,15.93
2017-08-02T04:26:21.977Z,13.77
2017-08-02T04:28:47.933Z,12.73
2017-08-02T04:31:13.929Z,14.10
2017-08-02T04:33:39.876Z,13.73
2017-08-02T04:36:05.886Z,16.90
2017-08-02T04:38:31.818Z,11.40
2017-08-02T04:40:57.776Z,14.10
2017-08-02T04:43:24.144Z,12.80
2017-08-02T04:45:50.215Z,13.37
2017-08-02T04:48:16.160Z,13.67
2017-08-02T04:50:42.948Z,15.27
2017-08-02T04:53:08.870Z,14.00
2017-08-02T04:55:35.043Z,15.07
2017-08-02T04:58:01.040Z,13.63
2017-08-02T05:00:27.104Z,13.97
2017-08-02T05:02:53.700Z,16.83
2017-08-02T05:05:19.653Z,15.17
2017-08-02T05:07:45.573Z,15.30
2017-08-02T05:10:11.627Z,12.20
2017-08-02T05:12:37.559Z,16.13
2017-08-02T05:15:05.070Z,14.30
2017-08-02T05:17:31.064Z,14.40
2017-08-02T05:19:57.748Z,14.53
2017-08-02T05:22:23.715Z,13.57
2017-08-02T05:24:49.668Z,14.63
2017-08-02T05:27:16.742Z,13.33
2017-08-02T05:29:42.722Z,12.47
2017-08-02T05:32:08.711Z,13.37
2017-08-02T05:34:34.726Z,13.13
2017-08-02T05:37:01.375Z,14.43
2017-08-02T05:39:27.309Z,14.50
2017-08-02T05:41:53.295Z,16.63
2017-08-02T05:44:19.222Z,14.33
2017-08-02T05:46:45.159Z,13.90
2017-08-02T05:49:11.148Z,17.00
2017-08-02T05:51:37.071Z,12.23
2017-08-02T05:54:03.683Z,17.33
2017-08-02T05:56:29.896Z,11.83
2017-08-02T05:58:55.829Z,13.30
2017-08-02T06:01:21.789Z,13.37
2017-08-02T06:03:48.516Z,12.97
2017-08-02T06:06:14.480Z,14.40
2017-08-02T06:08:40.714Z,14.93
2017-08-02T06:11:06.683Z,12.90
2017-08-02T06:13:33.404Z,12.57
2017-08-02T06:15:59.347Z,11.63
2017-08-02T06:18:25.300Z,12.00
2017-08-02T06:20:51.384Z,12.70
2017-08-02T06:23:18.325Z,12.17
2017-08-02T06:25:44.261Z,12.13
2017-08-02T06:28:10.844Z,12.90
2017-08-02T06:30:36.823Z,11.90
2017-08-02T06:33:03.606Z,12.40
2017-08-02T06:35:29.731Z,13.13
2017-08-02T06:37:55.747Z,13.00
2017-08-02T06:40:22.694Z,10.60
2017-08-02T06:42:48.667Z,11.67
2017-08-02T06:45:16.522Z,12.00
2017-08-02T06:47:42.471Z,13.50
2017-08-02T06:50:08.521Z,17.17
2017-08-02T06:52:34.494Z,17.70
2017-08-02T06:55:00.555Z,19.40
2017-08-02T06:57:26.569Z,12.57
2017-08-02T06:59:52.516Z,12.80
2017-08-02T07:02:18.495Z,11.23
2017-08-02T07:04:44.455Z,14.47
2017-08-02T07:07:10.415Z,10.73
2017-08-02T07:09:36.357Z,10.43
2017-08-02T07:12:02.341Z,10.63
2017-08-02T07:14:28.323Z,11.60
2017-08-02T07:16:54.279Z,11.67
2017-08-02T07:19:20.256Z,14.90
2017-08-02T07:21:46.219Z,10.60
2017-08-02T07:24:12.404Z,10.87
2017-08-02T07:26:38.478Z,12.40
2017-08-02T07:29:04.686Z,13.57
2017-08-02T07:31:30.611Z,11.70
2017-08-02T07:33:56.571Z,9.00
2017-08-02T07:36:22.571Z,8.97
2017-08-02T07:38:48.744Z,10.00
2017-08-02T07:41:14.751Z,8.27
2017-08-02T07:43:40.756Z,12.10
2017-08-02T07:46:06.684Z,10.10
2017-08-02T07:48:32.661Z,8.00
2017-08-02T07:50:58.639Z,8.97
2017-08-02T07:53:25.333Z,8.50
2017-08-02T07:55:51.325Z,8.00
2017-08-02T07:58:17.306Z,5.90
2017-08-02T08:00:43.244Z,9.63
2017-08-02T08:03:09.920Z,7.40
2017-08-02T08:05:35.866Z,7.17
2017-08-02T08:08:01.840Z,7.50
2017-08-02T08:10:27.816Z,6.20
2017-08-02T08:12:53.777Z,6.53
2017-08-02T08:15:19.791Z,7.67
2017-08-02T08:17:45.781Z,7.83
2017-08-02T08:20:11.756Z,9.37
2017-08-02T08:22:37.748Z,6.80
2017-08-02T08:25:03.700Z,6.43
2017-08-02T08:27:29.631Z,6.73
2017-08-02T08:29:55.604Z,5.80
2017-08-02T08:32:21.543Z,6.20
2017-08-02T08:34:47.480Z,5.23
2017-08-02T08:37:13.443Z,5.13
2017-08-02T08:39:39.362Z,5.10
2017-08-02T08:42:05.315Z,5.40
2017-08-02T08:44:31.351Z,7.03
2017-08-02T08:46:57.353Z,5.77
2017-08-02T08:49:23.370Z,6.17
2017-08-02T08:51:49.373Z,5.60
2017-08-02T08:54:15.375Z,5.57
2017-08-02T08:56:41.335Z,10.20
2017-08-02T08:59:07.282Z,5.63
2017-08-02T09:01:33.201Z,6.43
2017-08-02T09:03:59.179Z,5.30
2017-08-02T09:06:25.129Z,5.10
2017-08-02T09:08:51.058Z,6.20
2017-08-02T09:11:16.981Z,6.17
2017-08-02T09:13:42.910Z,7.30
2017-08-02T09:16:08.943Z,6.73
2017-08-02T09:18:35.617Z,5.87
2017-08-02T09:21:01.579Z,6.73
2017-08-02T09:23:27.484Z,6.23
2017-08-02T09:25:53.429Z,5.20
2017-08-02T09:28:19.354Z,7.43
2017-08-02T09:30:45.283Z,6.17
2017-08-02T09:33:11.276Z,6.03
2017-08-02T09:35:37.215Z,5.70
2017-08-02T09:38:03.937Z,5.30
2017-08-02T09:40:29.853Z,4.93
2017-08-02T09:42:55.807Z,5.20
2017-08-02T09:45:21.728Z,5.17
2017-08-02T09:47:47.660Z,6.70
2017-08-02T09:50:13.639Z,6.47
2017-08-02T09:52:40.363Z,6.27
2017-08-02T09:55:06.307Z,6.30
2017-08-02T09:57:32.276Z,6.10
2017-08-02T09:59:58.210Z,5.63
2017-08-02T10:02:24.131Z,6.07
2017-08-02T10:04:50.076Z,4.40
2017-08-02T10:07:15.999Z,4.40
2017-08-02T10:09:41.942Z,4.80
2017-08-02T10:12:07.875Z,4.93
2017-08-02T10:14:33.829Z,6.13
2017-08-02T10:16:59.786Z,5.33
2017-08-02T10:19:25.756Z,5.20
2017-08-02T10:21:51.727Z,5.10
2017-08-02T10:24:17.659Z,6.47
2017-08-02T10:26:43.584Z,4.63
2017-08-02T10:29:09.530Z,4.77
2017-08-02T10:31:35.503Z,5.63
2017-08-02T10:34:01.641Z,7.90
2017-08-02T10:36:27.574Z,5.23
2017-08-02T10:38:53.500Z,5.53
2017-08-02T10:41:19.474Z,5.17
2017-08-02T10:43:45.492Z,6.37
2017-08-02T10:46:11.467Z,5.63
2017-08-02T10:48:37.426Z,5.97
2017-08-02T10:51:03.395Z,4.87
2017-08-02T10:53:29.367Z,4.87
2017-08-02T10:55:55.321Z,5.30
2017-08-02T10:58:21.235Z,5.07
2017-08-02T11:00:47.259Z,5.10
2017-08-02T11:03:13.221Z,7.87
2017-08-02T11:05:39.264Z,4.47
2017-08-02T11:08:05.255Z,4.60
2017-08-02T11:10:31.215Z,5.30
2017-08-02T11:12:57.159Z,13.40
2017-08-02T11:15:29.994Z,8.80
2017-08-02T11:17:55.978Z,6.77
2017-08-02T11:20:21.957Z,10.97
2017-08-02T11:22:48.014Z,5.37
2017-08-02T11:25:14.019Z,5.07
2017-08-02T11:27:41.082Z,5.30
2017-08-02T11:30:07.001Z,6.70
2017-08-02T11:32:32.952Z,7.77
2017-08-02T11:34:58.958Z,4.87
2017-08-02T11:37:25.460Z,5.37
2017-08-02T11:39:51.424Z,4.77
2017-08-02T11:42:18.155Z,11.33
2017-08-02T11:44:44.096Z,5.03
2017-08-02T11:47:10.092Z,5.07
2017-08-02T11:49:36.108Z,4.47
2017-08-02T11:52:02.089Z,5.73
2017-08-02T11:54:28.098Z,6.07
2017-08-02T11:56:54.045Z,6.87
2017-08-02T11:59:20.904Z,7.80
2017-08-02T12:01:46.885Z,6.27
2017-08-02T12:04:12.796Z,5.93
2017-08-02T12:06:39.472Z,5.53
2017-08-02T12:09:05.451Z,5.90
2017-08-02T12:11:31.387Z,6.40
2017-08-02T12:13:57.358Z,4.80
2017-08-02T12:16:24.414Z,5.50
2017-08-02T12:18:50.335Z,6.30
2017-08-02T12:21:16.258Z,5.77
2017-08-02T12:23:42.312Z,4.90
2017-08-02T12:26:08.311Z,5.63
2017-08-02T12:28:34.291Z,9.63
2017-08-02T12:31:00.244Z,6.97
2017-08-02T12:33:26.168Z,7.20
2017-08-02T12:35:52.129Z,4.90
2017-08-02T12:38:18.127Z,4.63
2017-08-02T12:40:44.885Z,4.30
2017-08-02T12:43:10.875Z,6.10
2017-08-02T12:45:37.575Z,4.47
2017-08-02T12:48:03.524Z,4.23
2017-08-02T12:50:29.556Z,8.10
2017-08-02T12:52:56.256Z,8.37
2017-08-02T12:55:22.224Z,4.93
2017-08-02T12:57:48.188Z,5.80
2017-08-02T13:00:14.181Z,4.50
2017-08-02T13:02:40.119Z,5.07
2017-08-02T13:05:06.115Z,4.93
2017-08-02T13:07:32.109Z,4.47
2017-08-02T13:09:58.011Z,5.30
2017-08-02T13:12:24.044Z,6.40
2017-08-02T13:14:49.997Z,4.77
2017-08-02T13:17:16.749Z,5.40
2017-08-02T13:19:42.703Z,6.77
2017-08-02T13:22:08.664Z,5.60
2017-08-02T13:24:35.367Z,5.47
2017-08-02T13:27:01.404Z,5.73
2017-08-02T13:29:27.382Z,8.97
2017-08-02T13:31:53.363Z,7.23
2017-08-02T13:34:19.295Z,5.50
2017-08-02T13:36:45.293Z,15.87
2017-08-02T13:39:11.224Z,5.17
2017-08-02T13:41:37.166Z,7.53
2017-08-02T13:44:03.170Z,7.27
2017-08-02T13:46:29.096Z,5.70
2017-08-02T13:48:55.049Z,8.70
2017-08-02T13:51:20.971Z,8.77
2017-08-02T13:53:46.896Z,5.60
2017-08-02T13:56:12.835Z,4.93
2017-08-02T13:58:38.802Z,5.33
2017-08-02T14:01:04.759Z,6.33
2017-08-02T14:03:30.765Z,8.23
2017-08-02T14:05:56.736Z,6.20
2017-08-02T14:08:22.702Z,4.40
2017-08-02T14:10:49.367Z,4.30
2017-08-02T14:13:15.364Z,6.10
2017-08-02T14:15:41.286Z,4.67
2017-08-02T14:18:08.267Z,5.50
2017-08-02T14:20:34.241Z,4.90
2017-08-02T14:23:00.211Z,5.87
2017-08-02T14:25:26.148Z,4.60
2017-08-02T14:27:52.103Z,4.30
2017-08-02T14:30:18.123Z,5.43
2017-08-02T14:32:44.867Z,6.10
2017-08-02T14:35:10.820Z,5.07
2017-08-02T14:37:36.778Z,5.60
2017-08-02T14:40:02.738Z,5.13
2017-08-02T14:42:29.531Z,4.70
2017-08-02T14:44:55.459Z,4.03
2017-08-02T14:47:21.407Z,4.30
2017-08-02T14:49:48.205Z,4.73
2017-08-02T14:52:14.183Z,6.60
2017-08-02T14:54:40.253Z,4.70
2017-08-02T14:57:06.206Z,4.70
2017-08-02T14:59:32.255Z,10.23
2017-08-02T15:01:58.280Z,4.73
2017-08-02T15:04:24.218Z,4.73
2017-08-02T15:06:50.163Z,4.20
2017-08-02T15:09:16.114Z,4.13
2017-08-02T15:11:42.092Z,4.40
2017-08-02T15:14:08.056Z,4.87
2017-08-02T15:16:34.042Z,4.30
2017-08-02T15:18:59.999Z,4.60
2017-08-02T15:21:26.039Z,3.90
2017-08-02T15:23:51.965Z,4.40
2017-08-02T15:26:17.919Z,4.40
2017-08-02T15:28:43.851Z,5.00
2017-08-02T15:31:09.772Z,3.87
2017-08-02T15:33:35.752Z,7.80
2017-08-02T15:36:01.773Z,4.73
2017-08-02T15:38:27.782Z,9.07
2017-08-02T15:40:53.706Z,7.63
2017-08-02T15:43:19.622Z,4.20
2017-08-02T15:45:45.627Z,5.00
2017-08-02T15:48:11.570Z,4.67
2017-08-02T15:50:38.241Z,4.17
2017-08-02T15:53:04.239Z,3.90
2017-08-02T15:55:30.363Z,4.40
2017-08-02T15:57:56.310Z,4.73
2017-08-02T16:00:22.333Z,5.30
2017-08-02T16:02:48.287Z,4.57
2017-08-02T16:05:14.473Z,4.17
2017-08-02T16:07:40.423Z,5.20
2017-08-02T16:10:06.375Z,4.37
2017-08-02T16:12:33.092Z,4.00
2017-08-02T16:14:59.081Z,4.23
2017-08-02T16:17:25.071Z,3.80
2017-08-02T16:19:51.037Z,3.83
2017-08-02T16:22:17.095Z,5.57
2017-08-02T16:24:43.043Z,4.40
2017-08-02T16:27:09.016Z,4.80
2017-08-02T16:29:35.084Z,6.43
2017-08-02T16:32:01.032Z,6.90
2017-08-02T16:34:27.522Z,4.93
2017-08-02T16:36:53.491Z,6.83
2017-08-02T16:39:19.472Z,4.97
2017-08-02T16:41:45.501Z,6.60
2017-08-02T16:44:11.471Z,6.57
2017-08-02T16:46:37.381Z,4.77
2017-08-02T16:49:03.312Z,6.50
2017-08-02T16:51:29.270Z,4.90
2017-08-02T16:53:56.055Z,4.53
2017-08-02T16:56:22.029Z,4.57
2017-08-02T16:58:48.011Z,5.83
2017-08-02T17:01:13.971Z,4.20
2017-08-02T17:03:39.937Z,4.30
2017-08-02T17:06:05.916Z,4.07
2017-08-02T17:08:32.575Z,4.70
2017-08-02T17:10:59.444Z,4.73
2017-08-02T17:13:25.415Z,4.97
2017-08-02T17:15:51.361Z,4.57
2017-08-02T17:18:17.270Z,8.13
2017-08-02T17:20:43.267Z,8.00
2017-08-02T17:23:09.207Z,4.87
2017-08-02T17:25:35.913Z,6.63
2017-08-02T17:28:01.851Z,6.77
2017-08-02T17:30:27.792Z,6.63
2017-08-02T17:32:53.845Z,4.53
2017-08-02T17:35:19.771Z,4.60
2017-08-02T17:37:45.698Z,4.80
2017-08-02T17:40:11.651Z,4.90
2017-08-02T17:42:37.606Z,5.57
2017-08-02T17:45:03.548Z,6.30
2017-08-02T17:47:29.487Z,5.63
2017-08-02T17:49:55.429Z,6.40
2017-08-02T17:52:24.439Z,5.97
2017-08-02T17:54:50.428Z,6.90
2017-08-02T17:57:16.351Z,7.90
2017-08-02T17:59:42.255Z,5.23
2017-08-02T18:02:08.234Z,7.17
2017-08-02T18:04:34.979Z,5.50
2017-08-02T18:07:00.930Z,4.53
2017-08-02T18:09:26.879Z,6.20
2017-08-02T18:11:52.819Z,5.70
2017-08-02T18:14:18.885Z,6.37
2017-08-02T18:16:44.843Z,6.70
2017-08-02T18:19:10.859Z,5.10
2017-08-02T18:21:36.787Z,5.30
2017-08-02T18:24:02.729Z,6.30
2017-08-02T18:26:28.699Z,5.20
2017-08-02T18:28:54.666Z,5.73
2017-08-02T18:31:20.603Z,6.20
2017-08-02T18:33:46.561Z,6.00
2017-08-02T18:36:12.511Z,6.30
2017-08-02T18:38:38.859Z,9.47
2017-08-02T18:41:04.821Z,8.17
2017-08-02T18:43:30.809Z,10.80
2017-08-02T18:45:56.807Z,8.73
2017-08-02T18:48:22.755Z,8.27
2017-08-02T18:50:48.705Z,7.83
2017-08-02T18:53:14.645Z,9.03
2017-08-02T18:55:40.623Z,11.50
2017-08-02T18:58:07.305Z,8.17
2017-08-02T19:00:33.325Z,7.60
2017-08-02T19:02:59.241Z,6.80
2017-08-02T19:05:25.220Z,11.30
2017-08-02T19:07:51.920Z,9.30
2017-08-02T19:10:17.885Z,10.23
2017-08-02T19:12:43.863Z,7.77
2017-08-02T19:15:09.831Z,7.17
2017-08-02T19:17:36.747Z,6.53
2017-08-02T19:20:02.693Z,9.27
2017-08-02T19:22:28.703Z,16.33
2017-08-02T19:24:54.647Z,14.47
2017-08-02T19:27:20.644Z,8.47
2017-08-02T19:29:46.590Z,8.03
2017-08-02T19:32:13.263Z,9.63
2017-08-02T19:34:39.179Z,7.80
2017-08-02T19:37:05.994Z,7.47
2017-08-02T19:39:31.960Z,7.60
2017-08-02T19:41:57.893Z,7.10
2017-08-02T19:44:23.835Z,7.30
2017-08-02T19:46:49.886Z,7.90
2017-08-02T19:49:15.804Z,8.70
2017-08-02T19:51:41.723Z,11.10
2017-08-02T19:54:08.412Z,7.53
2017-08-02T19:56:34.363Z,7.40
2017-08-02T19:59:00.313Z,7.67
2017-08-02T20:01:26.269Z,9.27
2017-08-02T20:03:52.257Z,9.13
2017-08-02T20:06:18.192Z,8.93
2017-08-02T20:08:44.175Z,8.40
2017-08-02T20:11:10.127Z,10.90
2017-08-02T20:13:36.060Z,7.90
2017-08-02T20:16:02.080Z,8.20
2017-08-02T20:18:27.994Z,9.73
2017-08-02T20:20:53.935Z,9.40
2017-08-02T20:23:19.870Z,8.77
2017-08-02T20:25:45.814Z,8.27
2017-08-02T20:28:12.495Z,10.03
2017-08-02T20:30:38.530Z,9.53
2017-08-02T20:33:04.495Z,8.50
2017-08-02T20:35:31.416Z,8.80
2017-08-02T20:37:57.323Z,8.90
2017-08-02T20:40:23.235Z,11.87
2017-08-02T20:42:49.202Z,16.53
2017-08-02T20:45:15.122Z,9.77
2017-08-02T20:47:41.059Z,9.63
2017-08-02T20:50:07.018Z,13.43
2017-08-02T20:52:32.968Z,11.80
2017-08-02T20:54:58.896Z,12.90
2017-08-02T20:57:24.860Z,9.57
2017-08-02T20:59:50.803Z,9.70
2017-08-02T21:02:16.774Z,8.50
2017-08-02T21:04:43.469Z,11.63
2017-08-02T21:07:09.423Z,9.80
2017-08-02T21:09:36.368Z,11.97
2017-08-02T21:12:02.332Z,9.93
2017-08-02T21:14:28.312Z,10.07
2017-08-02T21:16:54.231Z,11.53
2017-08-02T21:19:20.159Z,14.80
2017-08-02T21:21:46.128Z,11.50
2017-08-02T21:24:12.075Z,10.97
2017-08-02T21:26:38.057Z,13.67
2017-08-02T21:29:04.790Z,13.17
2017-08-02T21:31:30.727Z,11.00
2017-08-02T21:33:56.666Z,13.87
2017-08-02T21:36:22.585Z,17.00
2017-08-02T21:38:48.535Z,11.83
2017-08-02T21:41:14.508Z,15.20
2017-08-02T21:43:40.453Z,13.47
2017-08-02T21:46:06.447Z,17.93
2017-08-02T21:48:32.391Z,12.57
2017-08-02T21:50:58.338Z,15.70
2017-08-02T21:53:24.268Z,14.93
2017-08-02T21:55:50.244Z,14.87
2017-08-02T21:58:16.183Z,11.70
2017-08-02T22:00:42.132Z,13.60
2017-08-02T22:03:08.078Z,13.60
2017-08-02T22:05:34.031Z,10.80
2017-08-02T22:08:00.004Z,11.40
2017-08-02T22:10:26.676Z,11.83
2017-08-02T22:12:52.755Z,11.37
2017-08-02T22:15:18.719Z,12.07
2017-08-02T22:17:44.674Z,15.33
2017-08-02T22:20:10.587Z,14.07
2017-08-02T22:22:36.540Z,14.07
2017-08-02T22:25:02.492Z,12.07
2017-08-02T22:27:28.424Z,14.83
2017-08-02T22:29:54.359Z,11.73
2017-08-02T22:32:20.270Z,10.43
2017-08-02T22:34:46.264Z,10.83
2017-08-02T22:37:12.251Z,11.00
2017-08-02T22:39:38.204Z,12.23
2017-08-02T22:42:04.217Z,10.70
2017-08-02T22:44:30.126Z,11.97
2017-08-02T22:46:56.084Z,11.13
2017-08-02T22:49:22.073Z,10.83
2017-08-02T22:51:48.053Z,10.93
2017-08-02T22:54:14.016Z,11.30
2017-08-02T22:56:40.008Z,12.83
2017-08-02T22:59:05.972Z,11.90
2017-08-02T23:01:31.966Z,11.93
2017-08-02T23:03:57.883Z,11.73
2017-08-02T23:06:23.836Z,11.70
2017-08-02T23:08:49.792Z,11.57
2017-08-02T23:11:15.721Z,12.27
2017-08-02T23:13:41.727Z,11.40
2017-08-02T23:16:07.644Z,10.93
2017-08-02T23:18:33.601Z,16.07
2017-08-02T23:20:59.514Z,12.37
2017-08-02T23:23:25.472Z,14.73
2017-08-02T23:25:51.427Z,12.57
2017-08-02T23:28:17.352Z,12.17
2017-08-02T23:30:43.315Z,13.97
2017-08-02T23:33:09.256Z,12.73
2017-08-02T23:35:35.179Z,12.23
2017-08-02T23:38:01.113Z,14.37
2017-08-02T23:40:27.028Z,13.00
2017-08-02T23:42:53.033Z,12.50
2017-08-02T23:45:19.680Z,12.43
2017-08-02T23:47:45.606Z,13.07
2017-08-02T23:50:11.556Z,14.30
2017-08-02T23:52:37.492Z,11.83
2017-08-02T23:55:03.570Z,12.73
2017-08-02T23:57:29.482Z,12.37
2017-08-02T23:59:57.146Z,13.33
